Time;durP1;ratioP1;P1;durP2;ratioP2;P2;SDS_P1;SDS_P2;PMS_P1;PMS_P2;Temp;Humidity;BMP_temperature;BMP_pressure;BME280_temperature;BME280_humidity;BME280_pressure;Samples;Min_cycle;Max_cycle;Signal;HPM_P1;HPM_P2
2023/10/05 00:00:46;;;;;;;9.90;4.35;;;;;;;;;;483853;28;885;-71
2023/10/05 00:01:04;;;;;;;8.75;4.18;;;;;;;;;;484833;28;952;-71
2023/10/05 00:01:30;;;;;;;10.60;4.55;;;;;;;;;;484940;28;1138;-71
2023/10/05 00:02:11;;;;;;;10.30;4.50;;;;;;;;;;481515;28;1110;-71
2023/10/05 00:02:26;;;;;;;8.93;4.20;;;;;;;;;;480314;28;1160;-71
2023/10/05 00:02:42;;;;;;;11.20;4.40;;;;;;;;;;478651;28;1172;-71
2023/10/05 00:02:58;;;;;;;13.13;4.63;;;;;;;;;;479268;28;1301;-71
2023/10/05 00:03:13;;;;;;;10.57;4.63;;;;;;;;;;478593;28;1394;-70
2023/10/05 00:03:30;;;;;;;8.93;4.50;;;;;;;;;;477870;28;1147;-70
2023/10/05 00:03:47;;;;;;;9.20;4.30;;;;;;;;;;479391;28;1011;-72
2023/10/05 00:04:03;;;;;;;9.52;4.35;;;;;;;;;;479120;28;1130;-71
2023/10/05 00:04:18;;;;;;;9.57;4.43;;;;;;;;;;478802;28;1063;-71
2023/10/05 00:04:41;;;;;;;9.52;4.25;;;;;;;;;;479276;28;1100;-71
2023/10/05 00:04:56;;;;;;;10.25;4.38;;;;;;;;;;481835;28;1117;-71
2023/10/05 00:05:13;;;;;;;10.87;4.57;;;;;;;;;;478790;28;931;-71
2023/10/05 00:05:29;;;;;;;10.60;4.70;;;;;;;;;;480081;28;1283;-71
2023/10/05 00:05:44;;;;;;;10.47;4.70;;;;;;;;;;480987;28;993;-71
2023/10/05 00:06:14;;;;;;;8.75;4.20;;;;;;;;;;481135;28;1354;-70
2023/10/05 00:06:29;;;;;;;8.93;4.43;;;;;;;;;;480613;28;1172;-71
2023/10/05 00:06:45;;;;;;;8.88;4.25;;;;;;;;;;479865;28;1200;-71
2023/10/05 00:07:02;;;;;;;9.23;4.28;;;;;;;;;;480774;28;1046;-71
2023/10/05 00:07:26;;;;;;;9.82;4.50;;;;;;;;;;480154;28;986;-71
2023/10/05 00:07:41;;;;;;;9.13;4.30;;;;;;;;;;479910;28;1322;-71
2023/10/05 00:07:57;;;;;;;8.67;4.30;;;;;;;;;;480345;28;982;-71
2023/10/05 00:08:14;;;;;;;9.52;4.20;;;;;;;;;;480530;28;1146;-71
2023/10/05 00:08:29;;;;;;;9.35;4.18;;;;;;;;;;480077;28;1260;-71
2023/10/05 00:08:47;;;;;;;10.73;4.55;;;;;;;;;;479251;28;1157;-71
2023/10/05 00:09:11;;;;;;;9.98;4.57;;;;;;;;;;479495;28;1414;-71
2023/10/05 00:09:27;;;;;;;8.37;4.33;;;;;;;;;;478649;28;1991;-71
2023/10/05 00:09:43;;;;;;;8.55;4.07;;;;;;;;;;478566;28;1194;-71
2023/10/05 00:10:00;;;;;;;9.40;4.18;;;;;;;;;;478765;28;1311;-71
2023/10/05 00:10:17;;;;;;;10.45;4.50;;;;;;;;;;480155;28;1122;-71
2023/10/05 00:10:33;;;;;;;10.32;4.60;;;;;;;;;;482559;28;965;-71
2023/10/05 00:10:49;;;;;;;9.40;4.40;;;;;;;;;;481437;28;1100;-71
2023/10/05 00:11:06;;;;;;;10.03;4.60;;;;;;;;;;481570;28;1138;-71
2023/10/05 00:11:29;;;;;;;9.93;4.63;;;;;;;;;;482212;28;993;-71
2023/10/05 00:11:44;;;;;;;10.60;4.50;;;;;;;;;;481367;28;1258;-71
2023/10/05 00:12:04;;;;;;;10.10;4.45;;;;;;;;;;481398;28;1218;-72
2023/10/05 00:12:22;;;;;;;8.52;4.40;;;;;;;;;;481455;28;1259;-71
2023/10/05 00:12:37;;;;;;;8.57;4.35;;;;;;;;;;480472;28;1043;-71
2023/10/05 00:12:54;;;;;;;9.40;4.43;;;;;;;;;;480303;28;1071;-71
2023/10/05 00:13:10;;;;;;;9.30;4.47;;;;;;;;;;481211;28;1157;-71
2023/10/05 00:13:26;;;;;;;10.95;4.63;;;;;;;;;;480508;28;1264;-71
2023/10/05 00:13:44;;;;;;;10.43;4.50;;;;;;;;;;482489;28;1027;-71
2023/10/05 00:14:06;;;;;;;9.48;4.35;;;;;;;;;;481928;28;1053;-71
2023/10/05 00:14:26;;;;;;;10.02;4.70;;;;;;;;;;482744;28;1009;-71
2023/10/05 00:14:42;;;;;;;9.77;4.45;;;;;;;;;;482727;28;1060;-71
2023/10/05 00:15:22;;;;;;;12.05;4.78;;;;;;;;;;482633;28;1128;-71
2023/10/05 00:15:38;;;;;;;10.60;4.55;;;;;;;;;;482509;28;1253;-71
2023/10/05 00:15:53;;;;;;;9.23;4.33;;;;;;;;;;482817;28;1174;-71
2023/10/05 00:16:15;;;;;;;9.20;4.63;;;;;;;;;;482259;28;1039;-71
2023/10/05 00:16:36;;;;;;;10.10;4.85;;;;;;;;;;482411;28;922;-71
2023/10/05 00:16:55;;;;;;;9.68;4.55;;;;;;;;;;482249;28;1482;-71
2023/10/05 00:17:10;;;;;;;9.18;4.15;;;;;;;;;;482577;28;1090;-71
2023/10/05 00:17:26;;;;;;;9.77;4.30;;;;;;;;;;480006;28;1424;-71
2023/10/05 00:17:42;;;;;;;10.20;4.78;;;;;;;;;;480032;28;1088;-71
2023/10/05 00:17:58;;;;;;;9.25;4.65;;;;;;;;;;479173;28;1168;-71
2023/10/05 00:18:19;;;;;;;8.63;4.30;;;;;;;;;;479948;28;1022;-71
2023/10/05 00:18:35;;;;;;;9.02;4.60;;;;;;;;;;481003;28;1056;-71
2023/10/05 00:18:52;;;;;;;9.75;4.60;;;;;;;;;;480109;28;1051;-72
2023/10/05 00:19:10;;;;;;;10.80;4.43;;;;;;;;;;478005;28;1239;-71
2023/10/05 00:19:31;;;;;;;10.63;4.38;;;;;;;;;;479258;28;1079;-70
2023/10/05 00:19:47;;;;;;;9.48;4.55;;;;;;;;;;479388;28;1025;-71
2023/10/05 00:20:09;;;;;;;11.10;4.82;;;;;;;;;;480911;28;958;-71
2023/10/05 00:20:31;;;;;;;11.73;4.82;;;;;;;;;;480551;28;1120;-71
2023/10/05 00:20:48;;;;;;;9.23;4.35;;;;;;;;;;481461;28;1074;-71
2023/10/05 00:21:06;;;;;;;9.52;4.28;;;;;;;;;;481227;28;985;-71
2023/10/05 00:21:22;;;;;;;9.32;4.22;;;;;;;;;;481339;28;946;-71
2023/10/05 00:21:51;;;;;;;9.40;4.43;;;;;;;;;;480667;28;1175;-71
2023/10/05 00:22:07;;;;;;;9.43;4.47;;;;;;;;;;480451;28;1414;-71
2023/10/05 00:22:22;;;;;;;10.73;4.50;;;;;;;;;;478293;28;1104;-71
2023/10/05 00:22:40;;;;;;;11.00;4.75;;;;;;;;;;478102;28;1059;-70
2023/10/05 00:22:57;;;;;;;12.05;4.85;;;;;;;;;;477870;28;1079;-71
2023/10/05 00:23:14;;;;;;;11.25;4.45;;;;;;;;;;477729;28;1373;-71
2023/10/05 00:23:29;;;;;;;9.07;4.30;;;;;;;;;;478976;28;1091;-71
2023/10/05 00:23:50;;;;;;;9.20;4.40;;;;;;;;;;479993;28;1116;-71
2023/10/05 00:24:11;;;;;;;10.23;4.68;;;;;;;;;;479929;28;1135;-71
2023/10/05 00:24:35;;;;;;;10.45;4.43;;;;;;;;;;479896;28;1089;-71
2023/10/05 00:24:50;;;;;;;9.50;4.25;;;;;;;;;;480014;28;1016;-71
2023/10/05 00:25:09;;;;;;;9.38;4.25;;;;;;;;;;478288;28;1290;-71
2023/10/05 00:25:27;;;;;;;10.55;4.47;;;;;;;;;;478566;28;1087;-71
2023/10/05 00:25:43;;;;;;;11.68;4.82;;;;;;;;;;478883;28;945;-71
2023/10/05 00:25:58;;;;;;;9.95;4.55;;;;;;;;;;476851;28;1072;-71
2023/10/05 00:26:14;;;;;;;9.57;4.40;;;;;;;;;;478090;28;1035;-71
2023/10/05 00:26:33;;;;;;;10.13;4.53;;;;;;;;;;478676;28;1311;-71
2023/10/05 00:26:49;;;;;;;10.13;4.40;;;;;;;;;;478852;28;1118;-71
2023/10/05 00:27:09;;;;;;;10.68;4.53;;;;;;;;;;479865;28;982;-71
2023/10/05 00:27:24;;;;;;;10.85;5.03;;;;;;;;;;478833;28;1173;-71
2023/10/05 00:27:41;;;;;;;11.32;4.70;;;;;;;;;;479018;28;935;-71
2023/10/05 00:28:04;;;;;;;10.85;4.45;;;;;;;;;;479437;28;1150;-71
2023/10/05 00:28:23;;;;;;;10.77;4.60;;;;;;;;;;480534;28;1245;-71
2023/10/05 00:28:39;;;;;;;9.90;4.50;;;;;;;;;;479920;28;1102;-71
2023/10/05 00:29:35;;;;;;;10.30;4.50;;;;;;;;;;482229;28;1951;-71
2023/10/05 00:29:56;;;;;;;10.35;4.57;;;;;;;;;;481269;28;1449;-71
2023/10/05 00:30:16;;;;;;;9.48;4.30;;;;;;;;;;479127;28;1050;-71
2023/10/05 00:30:33;;;;;;;10.20;4.63;;;;;;;;;;478739;28;1304;-71
2023/10/05 00:30:50;;;;;;;9.25;4.40;;;;;;;;;;477282;28;1112;-71
2023/10/05 00:31:06;;;;;;;7.95;4.28;;;;;;;;;;476095;28;1250;-71
2023/10/05 00:31:24;;;;;;;9.60;4.65;;;;;;;;;;476544;28;1134;-71
2023/10/05 00:31:39;;;;;;;11.48;4.60;;;;;;;;;;478449;28;1534;-71
2023/10/05 00:31:59;;;;;;;10.07;4.35;;;;;;;;;;478030;28;1144;-71
2023/10/05 00:32:22;;;;;;;8.43;4.38;;;;;;;;;;477888;28;1116;-71
2023/10/05 00:32:39;;;;;;;9.32;4.75;;;;;;;;;;479087;28;1382;-71
2023/10/05 00:32:59;;;;;;;9.38;4.70;;;;;;;;;;478005;28;1155;-71
2023/10/05 00:33:17;;;;;;;10.68;4.45;;;;;;;;;;476551;28;1145;-71
2023/10/05 00:33:33;;;;;;;10.32;4.43;;;;;;;;;;479095;28;2058;-71
2023/10/05 00:33:48;;;;;;;9.57;4.53;;;;;;;;;;478816;28;1296;-71
2023/10/05 00:34:04;;;;;;;9.90;4.32;;;;;;;;;;478665;28;1001;-71
2023/10/05 00:34:24;;;;;;;9.37;4.00;;;;;;;;;;478520;28;1357;-71
2023/10/05 00:34:41;;;;;;;9.07;4.30;;;;;;;;;;479433;28;1275;-70
2023/10/05 00:35:11;;;;;;;9.02;4.32;;;;;;;;;;481424;28;1535;-71
2023/10/05 00:35:28;;;;;;;9.18;4.30;;;;;;;;;;481838;28;1206;-71
2023/10/05 00:35:44;;;;;;;11.15;4.57;;;;;;;;;;480034;28;1366;-71
2023/10/05 00:36:01;;;;;;;12.70;4.90;;;;;;;;;;480180;28;1010;-71
2023/10/05 00:36:20;;;;;;;12.68;4.82;;;;;;;;;;480237;28;1190;-71
2023/10/05 00:36:39;;;;;;;11.82;4.40;;;;;;;;;;479960;28;1377;-71
2023/10/05 00:36:58;;;;;;;11.05;4.55;;;;;;;;;;480200;28;1068;-71
2023/10/05 00:37:14;;;;;;;11.18;4.70;;;;;;;;;;480000;28;1021;-72
2023/10/05 00:37:29;;;;;;;8.50;4.30;;;;;;;;;;479424;28;1121;-71
2023/10/05 00:37:46;;;;;;;8.98;4.10;;;;;;;;;;481342;28;1161;-71
2023/10/05 00:38:16;;;;;;;9.18;4.25;;;;;;;;;;481392;28;945;-71
2023/10/05 00:38:34;;;;;;;10.45;4.10;;;;;;;;;;482909;28;1105;-72
2023/10/05 00:38:51;;;;;;;10.25;4.38;;;;;;;;;;483128;28;1093;-71
2023/10/05 00:39:09;;;;;;;10.70;4.90;;;;;;;;;;482884;28;1262;-71
2023/10/05 00:39:26;;;;;;;10.60;4.63;;;;;;;;;;482580;28;1213;-71
2023/10/05 00:39:46;;;;;;;8.80;4.30;;;;;;;;;;483002;28;1952;-71
2023/10/05 00:40:04;;;;;;;9.10;4.20;;;;;;;;;;482395;28;1268;-71
2023/10/05 00:40:42;;;;;;;10.18;4.50;;;;;;;;;;484581;28;1448;-71
2023/10/05 00:41:03;;;;;;;9.25;4.30;;;;;;;;;;481027;28;1149;-71
2023/10/05 00:41:22;;;;;;;10.23;4.53;;;;;;;;;;480886;28;1153;-71
2023/10/05 00:41:37;;;;;;;11.30;4.55;;;;;;;;;;480339;28;1100;-71
2023/10/05 00:42:20;;;;;;;9.75;4.30;;;;;;;;;;481126;28;954;-71
2023/10/05 00:42:36;;;;;;;10.02;4.80;;;;;;;;;;480307;28;1020;-71
2023/10/05 00:42:51;;;;;;;9.70;4.78;;;;;;;;;;480513;28;1217;-71
2023/10/05 00:43:12;;;;;;;9.57;4.70;;;;;;;;;;480463;28;1222;-71
2023/10/05 00:43:28;;;;;;;9.30;4.25;;;;;;;;;;480009;28;1097;-71
2023/10/05 00:43:46;;;;;;;10.70;4.63;;;;;;;;;;480638;28;1273;-71
2023/10/05 00:44:01;;;;;;;11.68;4.85;;;;;;;;;;481807;28;1029;-71
2023/10/05 00:44:18;;;;;;;10.60;4.60;;;;;;;;;;480757;28;1568;-71
2023/10/05 00:44:35;;;;;;;9.70;4.30;;;;;;;;;;479699;28;1066;-71
2023/10/05 00:44:50;;;;;;;9.52;4.30;;;;;;;;;;480596;28;977;-71
2023/10/05 00:45:11;;;;;;;10.50;4.40;;;;;;;;;;480500;28;1282;-71
2023/10/05 00:45:31;;;;;;;10.23;4.47;;;;;;;;;;480899;28;1217;-71
2023/10/05 00:45:47;;;;;;;9.55;4.32;;;;;;;;;;483014;28;1088;-71
2023/10/05 00:46:03;;;;;;;10.05;4.60;;;;;;;;;;479888;28;1369;-71
2023/10/05 00:46:20;;;;;;;10.15;4.38;;;;;;;;;;479380;28;1138;-71
2023/10/05 00:46:38;;;;;;;8.88;4.13;;;;;;;;;;479717;28;1199;-71
2023/10/05 00:46:54;;;;;;;8.25;4.20;;;;;;;;;;478758;28;1216;-70
2023/10/05 00:47:12;;;;;;;10.23;4.43;;;;;;;;;;479145;28;1147;-71
2023/10/05 00:47:27;;;;;;;10.63;4.53;;;;;;;;;;479226;28;1441;-71
2023/10/05 00:47:44;;;;;;;10.80;4.17;;;;;;;;;;478097;28;1334;-71
2023/10/05 00:48:09;;;;;;;10.23;4.43;;;;;;;;;;480058;28;958;-71
2023/10/05 00:48:29;;;;;;;12.50;4.88;;;;;;;;;;480439;28;1254;-71
2023/10/05 00:49:04;;;;;;;10.85;4.43;;;;;;;;;;481396;28;1804;-71
2023/10/05 00:49:22;;;;;;;11.68;4.28;;;;;;;;;;482481;28;2587;-71
2023/10/05 00:49:59;;;;;;;9.98;4.30;;;;;;;;;;481697;28;1086;-71
2023/10/05 00:50:15;;;;;;;10.32;4.65;;;;;;;;;;481956;28;1192;-71
2023/10/05 00:50:33;;;;;;;9.23;4.30;;;;;;;;;;482760;28;1212;-71
2023/10/05 00:50:51;;;;;;;8.40;4.07;;;;;;;;;;482037;28;969;-71
2023/10/05 00:51:13;;;;;;;8.43;4.28;;;;;;;;;;479750;28;1263;-71
2023/10/05 00:51:33;;;;;;;9.60;4.38;;;;;;;;;;480471;28;1208;-71
2023/10/05 00:52:02;;;;;;;10.95;4.53;;;;;;;;;;478651;28;1236;-71
2023/10/05 00:52:28;;;;;;;13.38;4.50;;;;;;;;;;479931;28;1073;-71
2023/10/05 00:52:44;;;;;;;11.88;4.10;;;;;;;;;;480020;28;1211;-71
2023/10/05 00:53:00;;;;;;;11.02;4.30;;;;;;;;;;482901;28;1410;-71
2023/10/05 00:53:17;;;;;;;11.13;4.47;;;;;;;;;;484315;28;1163;-71
2023/10/05 00:53:33;;;;;;;10.45;4.40;;;;;;;;;;483471;28;1243;-71
2023/10/05 00:53:50;;;;;;;10.13;4.55;;;;;;;;;;483721;28;1091;-71
2023/10/05 00:54:11;;;;;;;10.25;4.65;;;;;;;;;;483194;28;1345;-71
2023/10/05 00:54:31;;;;;;;10.93;4.60;;;;;;;;;;484078;28;1056;-71
2023/10/05 00:54:49;;;;;;;10.45;4.50;;;;;;;;;;484748;28;1054;-71
2023/10/05 00:55:12;;;;;;;10.82;4.35;;;;;;;;;;482455;28;1169;-71
2023/10/05 00:55:28;;;;;;;10.55;4.25;;;;;;;;;;482441;28;1098;-71
2023/10/05 00:55:47;;;;;;;7.97;4.10;;;;;;;;;;481993;28;1054;-71
2023/10/05 00:56:12;;;;;;;10.30;4.50;;;;;;;;;;482294;28;1025;-71
2023/10/05 00:56:33;;;;;;;10.02;4.45;;;;;;;;;;481817;28;1582;-71
2023/10/05 00:56:49;;;;;;;11.07;4.55;;;;;;;;;;481822;28;1101;-71
2023/10/05 00:57:05;;;;;;;11.13;4.60;;;;;;;;;;482436;28;982;-71
2023/10/05 00:57:24;;;;;;;10.73;4.63;;;;;;;;;;482023;28;1136;-71
2023/10/05 00:57:39;;;;;;;9.52;4.30;;;;;;;;;;479219;28;1380;-71
2023/10/05 00:57:55;;;;;;;8.67;4.13;;;;;;;;;;480002;28;990;-71
2023/10/05 00:58:14;;;;;;;9.00;4.22;;;;;;;;;;480116;28;926;-71
2023/10/05 00:58:37;;;;;;;9.05;4.18;;;;;;;;;;480750;28;1138;-70
2023/10/05 00:59:04;;;;;;;11.40;4.60;;;;;;;;;;480744;28;1125;-71
2023/10/05 00:59:20;;;;;;;9.95;4.40;;;;;;;;;;479785;28;1158;-71
2023/10/05 00:59:36;;;;;;;9.07;4.43;;;;;;;;;;480183;28;1063;-71
2023/10/05 01:00:27;;;;;;;10.88;4.40;;;;;;;;;;481036;28;918;-71
2023/10/05 01:00:53;;;;;;;8.10;4.00;;;;;;;;;;481672;28;1039;-71
2023/10/05 01:01:15;;;;;;;9.98;4.43;;;;;;;;;;479373;28;1379;-71
2023/10/05 01:01:49;;;;;;;10.07;4.57;;;;;;;;;;478071;28;1354;-71
2023/10/05 01:02:21;;;;;;;9.57;4.53;;;;;;;;;;477988;28;1181;-70
2023/10/05 01:02:45;;;;;;;9.73;4.68;;;;;;;;;;476007;28;1230;-71
2023/10/05 01:03:10;;;;;;;9.55;4.30;;;;;;;;;;477020;28;1071;-71
2023/10/05 01:03:33;;;;;;;10.80;4.35;;;;;;;;;;477472;28;1090;-71
2023/10/05 01:05:01;;;;;;;8.77;4.10;;;;;;;;;;474922;29;1045;-71
2023/10/05 01:05:25;;;;;;;9.07;4.30;;;;;;;;;;474783;29;1070;-71
2023/10/05 01:05:50;;;;;;;8.07;4.40;;;;;;;;;;474787;29;1092;-71
2023/10/05 01:06:12;;;;;;;10.00;4.30;;;;;;;;;;478153;28;1349;-71
2023/10/05 01:06:54;;;;;;;11.90;4.57;;;;;;;;;;479844;28;1150;-71
2023/10/05 01:07:56;;;;;;;9.90;4.20;;;;;;;;;;480113;28;880;-71
2023/10/05 01:08:15;;;;;;;10.00;4.50;;;;;;;;;;480756;28;1070;-71
2023/10/05 01:08:32;;;;;;;11.13;4.63;;;;;;;;;;481887;28;981;-70
2023/10/05 01:08:59;;;;;;;12.70;4.65;;;;;;;;;;482906;28;965;-71
2023/10/05 01:10:57;;;;;;;10.05;4.53;;;;;;;;;;478208;28;1044;-71
2023/10/05 01:11:14;;;;;;;10.18;4.47;;;;;;;;;;478586;28;1233;-71
2023/10/05 01:11:40;;;;;;;11.52;4.50;;;;;;;;;;479630;28;1152;-71
2023/10/05 01:12:14;;;;;;;9.02;4.10;;;;;;;;;;478644;28;1457;-71
2023/10/05 01:12:38;;;;;;;9.95;4.40;;;;;;;;;;478322;28;1082;-71
2023/10/05 01:12:54;;;;;;;10.20;4.18;;;;;;;;;;479145;28;1110;-71
2023/10/05 01:13:31;;;;;;;9.85;4.28;;;;;;;;;;479176;28;1093;-71
2023/10/05 01:13:48;;;;;;;10.23;4.30;;;;;;;;;;480686;28;1012;-71
2023/10/05 01:14:04;;;;;;;10.60;4.30;;;;;;;;;;482245;28;1155;-71
2023/10/05 01:14:23;;;;;;;10.35;4.13;;;;;;;;;;482575;28;937;-71
2023/10/05 01:14:43;;;;;;;10.73;4.35;;;;;;;;;;482487;28;1067;-71
2023/10/05 01:14:59;;;;;;;10.32;4.70;;;;;;;;;;481785;28;1262;-71
2023/10/05 01:15:19;;;;;;;8.88;4.50;;;;;;;;;;479883;28;1344;-71
2023/10/05 01:15:35;;;;;;;8.60;4.30;;;;;;;;;;479450;28;1135;-71
2023/10/05 01:15:54;;;;;;;9.85;4.53;;;;;;;;;;479070;28;1101;-71
2023/10/05 01:16:20;;;;;;;11.88;4.57;;;;;;;;;;479587;28;965;-71
2023/10/05 01:16:37;;;;;;;11.52;4.60;;;;;;;;;;479410;28;1186;-71
2023/10/05 01:16:54;;;;;;;10.05;4.70;;;;;;;;;;480270;28;1129;-71
2023/10/05 01:17:09;;;;;;;10.98;4.70;;;;;;;;;;480567;28;977;-71
2023/10/05 01:17:27;;;;;;;10.70;4.53;;;;;;;;;;483095;28;1202;-70
2023/10/05 01:17:43;;;;;;;9.90;4.43;;;;;;;;;;482928;28;953;-71
2023/10/05 01:17:59;;;;;;;9.98;4.40;;;;;;;;;;483071;28;1021;-70
2023/10/05 01:18:14;;;;;;;11.38;4.30;;;;;;;;;;482587;28;1225;-71
2023/10/05 01:18:31;;;;;;;10.70;4.43;;;;;;;;;;482673;28;1113;-71
2023/10/05 01:18:47;;;;;;;10.07;4.55;;;;;;;;;;480721;28;1116;-71
2023/10/05 01:19:03;;;;;;;10.13;4.30;;;;;;;;;;481124;28;1462;-70
2023/10/05 01:19:18;;;;;;;10.27;4.40;;;;;;;;;;480582;28;1038;-71
2023/10/05 01:19:38;;;;;;;9.93;4.57;;;;;;;;;;478006;28;1003;-71
2023/10/05 01:19:57;;;;;;;10.38;4.40;;;;;;;;;;477893;28;1113;-71
2023/10/05 01:20:37;;;;;;;9.05;4.35;;;;;;;;;;478917;28;949;-71
2023/10/05 01:20:55;;;;;;;9.05;4.10;;;;;;;;;;480356;28;1067;-71
2023/10/05 01:21:11;;;;;;;9.32;4.38;;;;;;;;;;480098;28;989;-71
2023/10/05 01:21:27;;;;;;;9.57;4.35;;;;;;;;;;481388;28;1081;-71
2023/10/05 01:21:43;;;;;;;9.88;4.30;;;;;;;;;;481494;28;1071;-71
2023/10/05 01:22:04;;;;;;;10.30;4.30;;;;;;;;;;482183;28;1049;-71
2023/10/05 01:22:21;;;;;;;12.57;4.57;;;;;;;;;;479681;28;1176;-71
2023/10/05 01:22:38;;;;;;;11.98;4.53;;;;;;;;;;480355;28;1028;-71
2023/10/05 01:22:57;;;;;;;9.35;4.40;;;;;;;;;;480629;28;1045;-71
2023/10/05 01:23:15;;;;;;;9.35;4.22;;;;;;;;;;480567;28;979;-71
2023/10/05 01:23:38;;;;;;;9.57;4.25;;;;;;;;;;480143;28;1009;-71
2023/10/05 01:23:53;;;;;;;9.25;4.38;;;;;;;;;;479003;28;1152;-71
2023/10/05 01:24:10;;;;;;;9.30;4.27;;;;;;;;;;479819;28;1231;-71
2023/10/05 01:24:27;;;;;;;10.18;4.30;;;;;;;;;;481477;28;1240;-71
2023/10/05 01:24:45;;;;;;;10.93;4.30;;;;;;;;;;482370;28;1134;-71
2023/10/05 01:25:04;;;;;;;10.10;4.35;;;;;;;;;;479809;28;1164;-71
2023/10/05 01:25:20;;;;;;;10.77;4.57;;;;;;;;;;480055;28;965;-71
2023/10/05 01:25:36;;;;;;;10.63;4.43;;;;;;;;;;477811;28;1371;-71
2023/10/05 01:25:51;;;;;;;9.90;4.60;;;;;;;;;;479018;28;1268;-70
2023/10/05 01:26:10;;;;;;;9.97;4.70;;;;;;;;;;480147;28;1154;-71
2023/10/05 01:26:26;;;;;;;9.98;4.30;;;;;;;;;;481424;28;1021;-71
2023/10/05 01:26:42;;;;;;;9.20;4.28;;;;;;;;;;480337;28;996;-71
2023/10/05 01:26:58;;;;;;;8.93;4.38;;;;;;;;;;480719;28;1065;-71
2023/10/05 01:27:14;;;;;;;9.65;4.50;;;;;;;;;;480718;28;1189;-71
2023/10/05 01:27:29;;;;;;;9.82;4.45;;;;;;;;;;479937;28;1126;-71
2023/10/05 01:27:48;;;;;;;8.90;4.13;;;;;;;;;;480100;28;1110;-71
2023/10/05 01:28:04;;;;;;;8.88;4.18;;;;;;;;;;481470;28;1297;-74
2023/10/05 01:28:19;;;;;;;8.43;4.25;;;;;;;;;;481173;28;962;-71
2023/10/05 01:28:36;;;;;;;8.80;4.03;;;;;;;;;;479983;28;1195;-71
2023/10/05 01:28:51;;;;;;;8.60;4.00;;;;;;;;;;477114;28;1322;-71
2023/10/05 01:29:06;;;;;;;9.43;4.30;;;;;;;;;;477592;28;1142;-71
2023/10/05 01:29:22;;;;;;;10.03;4.50;;;;;;;;;;478957;28;1999;-71
2023/10/05 01:29:37;;;;;;;9.20;4.05;;;;;;;;;;480112;28;1274;-71
2023/10/05 01:29:53;;;;;;;9.27;3.87;;;;;;;;;;479318;28;1046;-71
2023/10/05 01:30:12;;;;;;;9.98;4.25;;;;;;;;;;479248;28;1097;-71
2023/10/05 01:30:28;;;;;;;9.15;4.32;;;;;;;;;;479886;28;970;-71
2023/10/05 01:30:43;;;;;;;8.75;4.20;;;;;;;;;;479550;28;1191;-71
2023/10/05 01:30:58;;;;;;;9.13;4.17;;;;;;;;;;478638;28;1397;-71
2023/10/05 01:31:16;;;;;;;9.80;4.30;;;;;;;;;;478025;28;966;-71
2023/10/05 01:31:33;;;;;;;9.35;4.22;;;;;;;;;;479015;28;1436;-71
2023/10/05 01:31:51;;;;;;;8.25;4.20;;;;;;;;;;479398;28;1346;-71
2023/10/05 01:32:07;;;;;;;8.45;4.30;;;;;;;;;;478552;28;1071;-71
2023/10/05 01:32:23;;;;;;;9.10;4.50;;;;;;;;;;480024;28;1247;-70
2023/10/05 01:32:41;;;;;;;9.63;4.40;;;;;;;;;;479863;28;1300;-71
2023/10/05 01:32:56;;;;;;;9.63;4.22;;;;;;;;;;479480;28;1137;-70
2023/10/05 01:33:12;;;;;;;9.83;4.40;;;;;;;;;;481101;28;1283;-72
2023/10/05 01:33:29;;;;;;;9.85;4.50;;;;;;;;;;478342;28;1137;-71
2023/10/05 01:33:45;;;;;;;9.52;4.20;;;;;;;;;;478744;28;1141;-71
2023/10/05 01:34:01;;;;;;;9.07;4.10;;;;;;;;;;478085;28;1400;-71
2023/10/05 01:34:17;;;;;;;9.45;4.03;;;;;;;;;;478969;28;1126;-70
2023/10/05 01:34:33;;;;;;;12.25;4.40;;;;;;;;;;478068;28;1189;-71
2023/10/05 01:34:50;;;;;;;12.02;4.55;;;;;;;;;;477810;28;1094;-71
2023/10/05 01:35:09;;;;;;;10.65;4.53;;;;;;;;;;477419;28;1059;-71
2023/10/05 01:35:24;;;;;;;11.30;4.55;;;;;;;;;;478589;28;1057;-71
2023/10/05 01:35:41;;;;;;;10.23;4.40;;;;;;;;;;478124;28;1199;-71
2023/10/05 01:35:58;;;;;;;9.15;4.40;;;;;;;;;;479678;28;1066;-71
2023/10/05 01:36:18;;;;;;;9.05;4.22;;;;;;;;;;480111;28;986;-71
2023/10/05 01:36:34;;;;;;;9.52;4.15;;;;;;;;;;479687;28;974;-71
2023/10/05 01:36:53;;;;;;;10.52;4.60;;;;;;;;;;479755;28;1306;-71
2023/10/05 01:37:09;;;;;;;9.93;4.50;;;;;;;;;;479721;28;1046;-71
2023/10/05 01:37:30;;;;;;;10.45;4.53;;;;;;;;;;480099;28;1080;-70
2023/10/05 01:37:51;;;;;;;10.48;4.65;;;;;;;;;;482049;28;1117;-71
2023/10/05 01:38:06;;;;;;;9.10;4.47;;;;;;;;;;482126;28;1117;-71
2023/10/05 01:38:23;;;;;;;8.30;4.50;;;;;;;;;;481357;28;1348;-71
2023/10/05 01:38:40;;;;;;;8.30;4.18;;;;;;;;;;481090;28;942;-71
2023/10/05 01:39:01;;;;;;;8.48;4.38;;;;;;;;;;481148;28;1060;-71
2023/10/05 01:39:19;;;;;;;9.45;4.50;;;;;;;;;;481210;28;934;-71
2023/10/05 01:39:40;;;;;;;11.50;4.35;;;;;;;;;;481458;28;926;-71
2023/10/05 01:39:59;;;;;;;10.07;4.32;;;;;;;;;;480833;28;1517;-71
2023/10/05 01:40:23;;;;;;;10.02;4.50;;;;;;;;;;479147;28;1151;-71
2023/10/05 01:40:39;;;;;;;9.05;4.13;;;;;;;;;;479507;28;1041;-71
2023/10/05 01:40:58;;;;;;;9.32;4.25;;;;;;;;;;480198;28;1168;-71
2023/10/05 01:41:20;;;;;;;9.43;4.43;;;;;;;;;;480837;28;973;-71
2023/10/05 01:41:37;;;;;;;9.50;4.30;;;;;;;;;;480647;28;1174;-71
2023/10/05 01:41:53;;;;;;;11.18;4.38;;;;;;;;;;481013;28;1116;-71
2023/10/05 01:42:11;;;;;;;12.52;4.75;;;;;;;;;;480399;28;1200;-71
2023/10/05 01:42:30;;;;;;;10.95;4.50;;;;;;;;;;482216;28;1265;-71
2023/10/05 01:42:47;;;;;;;9.63;4.38;;;;;;;;;;481012;28;1101;-71
2023/10/05 01:43:03;;;;;;;10.60;4.40;;;;;;;;;;480173;28;1017;-71
2023/10/05 01:43:19;;;;;;;10.88;4.20;;;;;;;;;;479966;28;1080;-73
2023/10/05 01:43:35;;;;;;;10.57;4.33;;;;;;;;;;481572;28;1339;-73
2023/10/05 01:43:52;;;;;;;9.88;4.22;;;;;;;;;;482290;28;1090;-73
2023/10/05 01:44:08;;;;;;;9.43;4.20;;;;;;;;;;482496;28;961;-73
2023/10/05 01:44:25;;;;;;;9.10;4.32;;;;;;;;;;481973;28;1295;-73
2023/10/05 01:44:41;;;;;;;9.15;4.13;;;;;;;;;;481927;28;1158;-73
2023/10/05 01:44:56;;;;;;;8.65;3.88;;;;;;;;;;481940;28;930;-70
2023/10/05 01:45:24;;;;;;;9.53;4.10;;;;;;;;;;480168;28;1378;-71
2023/10/05 01:45:43;;;;;;;8.75;4.43;;;;;;;;;;479433;28;1197;-71
2023/10/05 01:45:59;;;;;;;9.48;4.38;;;;;;;;;;480076;28;1070;-71
2023/10/05 01:46:15;;;;;;;9.43;4.30;;;;;;;;;;479655;28;1133;-71
2023/10/05 01:46:35;;;;;;;10.10;4.35;;;;;;;;;;480206;28;1101;-71
2023/10/05 01:46:55;;;;;;;10.23;4.32;;;;;;;;;;479981;28;1153;-71
2023/10/05 01:47:10;;;;;;;8.88;3.83;;;;;;;;;;479202;28;1118;-71
2023/10/05 01:47:26;;;;;;;10.40;4.10;;;;;;;;;;480365;28;989;-70
2023/10/05 01:47:45;;;;;;;9.90;4.18;;;;;;;;;;479786;28;1226;-71
2023/10/05 01:48:05;;;;;;;8.88;4.25;;;;;;;;;;479911;28;969;-70
2023/10/05 01:48:26;;;;;;;8.63;4.28;;;;;;;;;;479693;28;1168;-71
2023/10/05 01:48:41;;;;;;;8.55;4.20;;;;;;;;;;479722;28;1540;-70
2023/10/05 01:48:57;;;;;;;7.43;4.00;;;;;;;;;;480607;28;1236;-71
2023/10/05 01:49:12;;;;;;;8.50;4.30;;;;;;;;;;479855;28;1166;-71
2023/10/05 01:49:27;;;;;;;12.20;4.63;;;;;;;;;;479703;28;2028;-70
2023/10/05 01:49:45;;;;;;;12.77;4.67;;;;;;;;;;478998;28;1273;-70
2023/10/05 01:50:00;;;;;;;10.88;4.20;;;;;;;;;;480185;28;1136;-71
2023/10/05 01:50:19;;;;;;;10.73;4.23;;;;;;;;;;480102;28;1200;-70
2023/10/05 01:50:36;;;;;;;10.38;4.18;;;;;;;;;;480246;28;1074;-70
2023/10/05 01:50:52;;;;;;;10.13;4.30;;;;;;;;;;480275;28;1066;-70
2023/10/05 01:51:15;;;;;;;9.02;4.10;;;;;;;;;;478832;28;1316;-71
2023/10/05 01:51:30;;;;;;;9.65;3.90;;;;;;;;;;478586;28;954;-71
2023/10/05 01:51:47;;;;;;;12.17;4.60;;;;;;;;;;477921;28;1153;-70
2023/10/05 01:52:03;;;;;;;11.80;4.65;;;;;;;;;;479414;28;995;-72
2023/10/05 01:52:20;;;;;;;10.52;4.25;;;;;;;;;;482135;28;1252;-71
2023/10/05 01:52:36;;;;;;;9.15;4.00;;;;;;;;;;482534;28;1105;-70
2023/10/05 01:53:08;;;;;;;9.85;4.10;;;;;;;;;;481457;28;1116;-71
2023/10/05 01:53:25;;;;;;;8.48;4.07;;;;;;;;;;480952;28;1124;-70
2023/10/05 01:53:41;;;;;;;9.07;3.95;;;;;;;;;;481023;28;1499;-70
2023/10/05 01:54:10;;;;;;;11.38;4.15;;;;;;;;;;480348;28;1239;-70
2023/10/05 01:54:28;;;;;;;9.82;4.40;;;;;;;;;;480307;28;1029;-70
2023/10/05 01:54:44;;;;;;;9.68;4.13;;;;;;;;;;481170;28;1389;-70
2023/10/05 01:55:00;;;;;;;9.32;4.20;;;;;;;;;;480979;28;1073;-71
2023/10/05 01:55:18;;;;;;;9.43;4.38;;;;;;;;;;480128;28;1129;-71
2023/10/05 01:55:41;;;;;;;10.85;4.30;;;;;;;;;;478362;28;1025;-71
2023/10/05 01:55:59;;;;;;;11.30;4.28;;;;;;;;;;480852;28;1157;-70
2023/10/05 01:56:23;;;;;;;9.90;4.13;;;;;;;;;;481167;28;1134;-70
2023/10/05 01:56:43;;;;;;;11.73;4.50;;;;;;;;;;478063;28;1030;-70
2023/10/05 01:57:01;;;;;;;10.85;4.20;;;;;;;;;;478092;28;958;-70
2023/10/05 01:57:16;;;;;;;9.10;4.10;;;;;;;;;;478020;28;1373;-70
2023/10/05 01:57:32;;;;;;;8.83;4.17;;;;;;;;;;479668;28;1049;-71
2023/10/05 01:57:48;;;;;;;10.00;4.32;;;;;;;;;;482759;28;1297;-70
2023/10/05 01:58:08;;;;;;;9.20;4.40;;;;;;;;;;481338;28;1322;-70
2023/10/05 01:58:27;;;;;;;9.13;4.38;;;;;;;;;;481423;28;1111;-70
2023/10/05 01:58:43;;;;;;;10.50;4.38;;;;;;;;;;483795;28;962;-70
2023/10/05 01:59:00;;;;;;;12.00;4.53;;;;;;;;;;482731;28;1334;-71
2023/10/05 01:59:20;;;;;;;10.57;4.45;;;;;;;;;;480304;28;1913;-71
2023/10/05 01:59:40;;;;;;;9.70;4.40;;;;;;;;;;480934;28;1112;-70
2023/10/05 01:59:55;;;;;;;9.38;4.38;;;;;;;;;;479064;28;1164;-70
2023/10/05 02:00:14;;;;;;;9.03;4.20;;;;;;;;;;478404;28;1125;-70
2023/10/05 02:00:31;;;;;;;9.80;4.40;;;;;;;;;;480291;28;1044;-70